createdAt,value
2019-05-15T00:00:18.371Z,9.69
2019-05-15T00:05:24.346Z,9.80
2019-05-15T00:10:32.311Z,9.03
2019-05-15T00:15:40.392Z,9.27
2019-05-15T00:20:49.702Z,9.02
2019-05-15T00:25:54.450Z,8.96
2019-05-15T00:31:02.387Z,9.16
2019-05-15T00:36:10.011Z,8.95
2019-05-15T00:41:18.455Z,8.87
2019-05-15T00:46:24.829Z,8.54
2019-05-15T00:51:32.449Z,8.87
2019-05-15T00:56:40.608Z,8.88
2019-05-15T01:01:48.776Z,8.94
2019-05-15T01:06:55.377Z,9.33
2019-05-15T01:12:03.050Z,8.72
2019-05-15T01:17:10.639Z,8.88
2019-05-15T01:22:19.534Z,9.01
2019-05-15T01:27:25.540Z,8.85
2019-05-15T01:32:33.140Z,9.24
2019-05-15T01:37:40.752Z,9.22
2019-05-15T01:42:50.005Z,9.12
2019-05-15T01:47:55.612Z,9.07
2019-05-15T01:53:03.564Z,10.31
2019-05-15T01:58:11.249Z,9.61
2019-05-15T02:03:18.874Z,10.18
2019-05-15T02:08:28.511Z,9.38
2019-05-15T02:13:33.606Z,9.51
2019-05-15T02:18:41.293Z,9.52
2019-05-15T02:23:49.140Z,11.03
2019-05-15T02:28:56.770Z,9.85
2019-05-15T02:34:04.365Z,9.73
2019-05-15T02:39:11.980Z,10.28
2019-05-15T02:44:20.158Z,9.77
2019-05-15T02:49:29.905Z,10.24
2019-05-15T02:54:34.025Z,11.25
2019-05-15T02:59:42.555Z,9.95
2019-05-15T03:04:50.152Z,10.13
2019-05-15T03:09:59.948Z,9.95
2019-05-15T03:15:05.204Z,10.29
2019-05-15T03:20:12.964Z,10.66
2019-05-15T03:25:20.569Z,10.13
2019-05-15T03:30:32.172Z,10.54
2019-05-15T03:35:41.938Z,10.73
2019-05-15T03:40:43.356Z,10.75
2019-05-15T03:45:50.994Z,11.05
2019-05-15T03:50:59.671Z,10.83
2019-05-15T03:56:05.809Z,11.20
2019-05-15T04:01:28.647Z,11.01
2019-05-15T04:06:20.881Z,11.33
2019-05-15T04:11:29.360Z,12.22
2019-05-15T04:16:38.749Z,10.59
2019-05-15T04:21:45.173Z,10.79
2019-05-15T04:26:49.883Z,10.77
2019-05-15T04:32:02.442Z,10.85
2019-05-15T04:37:04.607Z,11.72
2019-05-15T04:42:12.196Z,11.66
2019-05-15T04:47:19.826Z,10.42
2019-05-15T04:52:30.487Z,11.38
2019-05-15T04:57:34.620Z,9.89
2019-05-15T05:02:42.226Z,10.00
2019-05-15T05:07:49.884Z,10.55
2019-05-15T05:12:59.109Z,10.84
2019-05-15T05:18:04.625Z,9.73
2019-05-15T05:23:12.204Z,9.54
2019-05-15T05:28:19.848Z,9.35
2019-05-15T05:33:28.639Z,9.24
2019-05-15T05:38:34.633Z,9.19
2019-05-15T05:43:42.277Z,9.33
2019-05-15T05:48:49.873Z,9.28
2019-05-15T05:53:58.987Z,10.24
2019-05-15T05:59:04.650Z,8.91
2019-05-15T06:04:12.333Z,8.54
2019-05-15T06:09:20.084Z,9.46
2019-05-15T06:14:28.855Z,8.86
2019-05-15T06:19:35.061Z,9.40
2019-05-15T06:24:43.009Z,8.93
2019-05-15T06:29:50.580Z,9.24
2019-05-15T06:34:58.192Z,8.54
2019-05-15T06:40:05.792Z,9.04
2019-05-15T06:45:13.824Z,8.61
2019-05-15T06:50:21.716Z,8.43
2019-05-15T06:55:29.372Z,8.44
2019-05-15T07:00:39.085Z,8.26
2019-05-15T07:05:44.292Z,8.35
2019-05-15T07:10:51.908Z,7.95
2019-05-15T07:17:10.837Z,8.31
2019-05-15T07:22:18.462Z,6.76
2019-05-15T07:27:28.218Z,6.18
2019-05-15T07:32:33.252Z,6.30
2019-05-15T07:37:41.012Z,6.22
2019-05-15T07:42:49.152Z,6.34
2019-05-15T07:47:58.355Z,5.67
2019-05-15T07:53:03.104Z,5.46
2019-05-15T07:58:10.925Z,5.28
2019-05-15T08:03:18.684Z,4.91
2019-05-15T08:08:28.856Z,4.87
2019-05-15T08:13:33.401Z,4.59
2019-05-15T08:18:43.322Z,3.37
2019-05-15T08:23:50.944Z,3.59
2019-05-15T08:28:58.704Z,3.08
2019-05-15T08:34:15.210Z,3.09
2019-05-15T08:39:13.621Z,2.73
2019-05-15T08:44:21.220Z,3.00
2019-05-15T08:49:28.837Z,2.60
2019-05-15T08:54:38.326Z,2.73
2019-05-15T08:59:43.777Z,2.37
2019-05-15T09:04:51.429Z,2.41
2019-05-15T09:09:59.105Z,2.31
2019-05-15T09:15:07.787Z,2.51
2019-05-15T09:20:13.864Z,2.12
2019-05-15T09:25:21.516Z,2.37
2019-05-15T09:30:29.132Z,2.38
2019-05-15T09:35:39.237Z,2.33
2019-05-15T09:40:46.397Z,2.30
2019-05-15T09:45:51.401Z,1.94
2019-05-15T09:50:58.995Z,2.46
2019-05-15T09:56:08.144Z,1.57
2019-05-15T10:01:13.753Z,1.69
2019-05-15T10:06:21.423Z,1.48
2019-05-15T10:11:29.092Z,1.46
2019-05-15T10:16:36.666Z,1.77
2019-05-15T10:21:44.283Z,1.82
2019-05-15T10:26:51.981Z,2.16
2019-05-15T10:31:59.622Z,2.04
2019-05-15T10:37:08.434Z,1.76
2019-05-15T10:42:14.801Z,1.95
2019-05-15T10:47:22.709Z,2.23
2019-05-15T10:52:30.352Z,1.88
2019-05-15T10:57:42.667Z,1.79
2019-05-15T11:02:45.429Z,1.85
2019-05-15T11:07:53.188Z,1.97
2019-05-15T11:13:00.864Z,1.93
2019-05-15T11:18:09.323Z,1.86
2019-05-15T11:23:15.699Z,1.66
2019-05-15T11:28:23.553Z,1.73
2019-05-15T11:33:31.176Z,1.64
2019-05-15T11:38:38.964Z,1.93
2019-05-15T11:43:49.432Z,1.91
2019-05-15T11:48:54.413Z,2.10
2019-05-15T11:54:02.535Z,1.84
2019-05-15T11:59:10.136Z,2.13
2019-05-15T12:04:27.799Z,2.04
2019-05-15T12:09:28.021Z,1.87
2019-05-15T12:14:32.400Z,1.98
2019-05-15T12:19:40.151Z,1.98
2019-05-15T12:24:49.978Z,2.04
2019-05-15T12:29:55.269Z,2.18
2019-05-15T12:35:02.929Z,2.04
2019-05-15T13:00:39.656Z,2.85
2019-05-15T13:05:48.532Z,2.81
2019-05-15T13:10:54.385Z,2.85
2019-05-15T13:16:02.002Z,2.86
2019-05-15T13:21:09.856Z,3.01
2019-05-15T13:26:23.733Z,2.84
2019-05-15T13:31:24.824Z,3.09
2019-05-15T13:36:32.443Z,2.83
2019-05-15T13:41:40.173Z,2.91
2019-05-15T13:46:47.765Z,3.04
2019-05-15T13:51:55.360Z,2.74
2019-05-15T13:57:03.297Z,2.71
2019-05-15T14:02:10.919Z,2.78
2019-05-15T14:07:19.311Z,2.85
2019-05-15T14:12:27.616Z,3.18
2019-05-15T14:17:32.790Z,3.01
2019-05-15T14:22:40.857Z,2.71
2019-05-15T14:27:48.761Z,2.60
2019-05-15T14:32:57.079Z,2.73
2019-05-15T14:38:06.526Z,3.14
2019-05-15T14:43:10.533Z,2.95
2019-05-15T14:48:18.999Z,2.59
2019-05-15T14:53:25.353Z,2.80
2019-05-15T14:58:33.238Z,2.92
2019-05-15T15:03:41.249Z,2.90
2019-05-15T15:08:49.148Z,2.53
2019-05-15T15:13:57.870Z,2.63
2019-05-15T15:19:04.037Z,2.74
2019-05-15T15:24:11.764Z,2.49
2019-05-15T15:29:19.376Z,2.68
2019-05-15T15:34:28.309Z,2.62
2019-05-15T15:39:34.420Z,2.65
2019-05-15T15:44:42.296Z,2.14
2019-05-15T15:49:49.916Z,2.36
2019-05-15T15:54:57.609Z,2.46
2019-05-15T16:00:05.453Z,2.55
2019-05-15T16:05:13.257Z,2.36
2019-05-15T16:10:21.165Z,2.56
2019-05-15T16:15:29.183Z,2.71
2019-05-15T16:20:35.983Z,2.60
2019-05-15T16:25:43.584Z,3.13
2019-05-15T16:30:51.705Z,3.11
2019-05-15T16:35:58.437Z,2.98
2019-05-15T16:41:06.020Z,2.62
2019-05-15T16:46:13.716Z,2.83
2019-05-15T16:51:21.357Z,2.56
2019-05-15T16:56:29.029Z,2.65
2019-05-15T17:01:39.146Z,2.62
2019-05-15T17:06:44.049Z,2.58
2019-05-15T17:11:51.652Z,2.48
2019-05-15T17:16:59.325Z,2.25
2019-05-15T17:22:09.301Z,2.24
2019-05-15T17:27:14.245Z,2.44
2019-05-15T17:32:21.856Z,2.31
2019-05-15T17:37:29.524Z,2.40
2019-05-15T17:42:39.099Z,2.17
2019-05-15T17:47:44.418Z,2.06
2019-05-15T17:52:52.013Z,2.37
2019-05-15T17:58:01.095Z,2.35
2019-05-15T18:03:08.667Z,3.08
2019-05-15T18:08:08.667Z,2.29
2019-05-15T18:13:13.754Z,2.23
2019-05-15T18:18:21.360Z,2.43
2019-05-15T18:23:28.992Z,2.27
2019-05-15T18:28:38.777Z,2.39
2019-05-15T18:33:53.465Z,2.25
2019-05-15T18:38:50.876Z,2.36
2019-05-15T18:43:58.484Z,2.43
2019-05-15T18:49:06.357Z,2.87
2019-05-15T18:54:13.987Z,3.11
2019-05-15T18:59:21.572Z,3.06
2019-05-15T19:04:29.509Z,2.80
2019-05-15T19:09:38.656Z,2.48
2019-05-15T19:14:44.449Z,2.60
2019-05-15T19:19:52.359Z,2.75
2019-05-15T19:25:00.241Z,2.62
2019-05-15T19:30:08.291Z,2.35
2019-05-15T19:35:14.998Z,3.35
2019-05-15T19:40:22.596Z,2.98
2019-05-15T19:45:30.434Z,2.74
2019-05-15T19:50:38.082Z,3.26
2019-05-15T19:55:47.966Z,2.93
2019-05-15T20:00:53.627Z,3.05
2019-05-15T20:06:01.700Z,3.38
2019-05-15T20:11:10.381Z,4.70
2019-05-15T20:16:18.325Z,3.48
2019-05-15T20:21:22.797Z,3.50
2019-05-15T20:26:30.477Z,3.87
2019-05-15T20:31:38.484Z,3.49
2019-05-15T20:36:45.506Z,3.76
2019-05-15T20:41:53.117Z,3.21
2019-05-15T20:47:00.743Z,3.35
2019-05-15T20:52:08.356Z,3.13
2019-05-15T20:57:16.033Z,3.54
2019-05-15T21:02:23.665Z,4.00
2019-05-15T21:07:38.570Z,3.82
2019-05-15T21:12:41.150Z,4.17
2019-05-15T21:17:54.877Z,4.19
2019-05-15T21:22:53.206Z,4.57
2019-05-15T21:28:00.828Z,4.06
2019-05-15T21:33:08.742Z,4.06
2019-05-15T21:38:18.480Z,3.88
2019-05-15T21:43:23.205Z,3.65
2019-05-15T21:48:30.824Z,3.55
2019-05-15T21:53:39.016Z,3.59
2019-05-15T21:58:48.300Z,3.65
2019-05-15T22:03:53.746Z,3.57
2019-05-15T22:09:01.340Z,3.69
2019-05-15T22:14:09.082Z,3.75
2019-05-15T22:19:18.157Z,3.46
2019-05-15T22:24:23.841Z,3.61
2019-05-15T22:29:31.452Z,4.03
2019-05-15T22:34:39.305Z,4.11
2019-05-15T22:39:47.100Z,4.37
2019-05-15T22:44:54.714Z,4.30
2019-05-15T22:50:02.377Z,4.09
2019-05-15T22:55:09.976Z,4.70
2019-05-15T23:00:17.626Z,4.70
2019-05-15T23:05:28.532Z,4.71
2019-05-15T23:10:32.712Z,4.96
2019-05-15T23:15:40.361Z,5.84
2019-05-15T23:20:48.252Z,5.03
2019-05-15T23:25:57.727Z,5.53
2019-05-15T23:31:03.297Z,6.24
2019-05-15T23:36:10.880Z,6.25
2019-05-15T23:41:19.044Z,6.56
2019-05-15T23:46:25.725Z,6.55
2019-05-15T23:51:33.356Z,7.27
2019-05-15T23:56:40.975Z,6.64
